Tiempo atmosférico en la estación meteorológica de Ronda Instituto, Málaga (760 m.)



Fecha
DESCASC
Temp. máxima en grados centígrados (hora)
DESCASC
Temp. mínima en grados centígrados (hora)
DESCASC
Temp. media en grados centígrados
DESCASC
Racha de viento máxima en m/sg (hora)
DESCASC
Velocidad máxima media en intervalos de 10 minutos(hora)
DESCASC
Precipitaciones diarias en mm
DESCASC
Precipitaciones de 00:00 a 06:00 en mm
DESCASC
Precipitaciones de 06:00 a 12:00 en mm
DESCASC
Precipitaciones de 12:00 a 18:00 en mm
DESCASC
Precipitaciones de 18:00 a 24:00 en mm
DESCASC
16-04-2019 22.5 (16:40) 8.4 (08:00) 15.4 10 (23:59) 3.61 (14:30) 0 0 0 0 0
15-04-2019 23.6 (14:50) 11.3 (23:59) 17.5 12.22 (17:10) 5.28 (18:10) 0 0 0 0 0
14-04-2019 24.4 (17:40) 10.1 (00:00) 17.3 6.67 (17:50) 3.61 (18:30) 0 0 0 0 0
13-04-2019 20.6 (16:40) 7.3 (00:00) 14 7.22 (19:20) 3.89 (18:50) 0 0 0 0 0
12-04-2019 18.5 (18:00) 6.5 (00:00) 12.5 7.5 (18:00) 3.33 (18:10) 0 0 0 0 0
11-04-2019 15.9 (17:20) 5.3 (00:00) 10.6 8.89 (13:40) 5 (14:00) 0 0 0 0 0
10-04-2019 13.8 (18:40) 5.5 (00:00) 9.7 9.72 (18:50) 5 (17:10) 0 0 0 0 0
09-04-2019 13.9 (16:20) 6.6 (00:00) 10.2 11.39 (16:10) 5.83 (16:40) 0 0 0 0 0
08-04-2019 13.2 (16:10) 8.9 (00:00) 11 8.33 (16:10) 3.06 (12:20) 0.8 0.4 0 0.4 0
07-04-2019 12.2 (16:40) 5.9 (00:00) 9 11.39 (14:00) 3.89 (03:10) 4.8 0.8 0.2 0.2 3.6
06-04-2019 9.3 (13:40) 4.8 (00:00) 7.1 12.78 (19:10) 5.83 (00:10) 9.4 0 3.8 3.2 2.4
05-04-2019 10.3 (17:10) 5.7 (00:00) 8 15 (18:20) 6.94 (16:30) 9.2 0 6.6 2.2 0.4
04-04-2019 16.1 (16:10) 4.6 (00:00) 10.4 8.61 (19:10) 3.89 (16:00) 0 0 0 0 0
03-04-2019 18.7 (13:50) 7.6 (00:00) 13.2 9.72 (19:10) 5 (19:10) 0 0 0 0 0
02-04-2019 19 (16:20) 5.7 (00:00) 12.3 5.83 (18:10) 2.5 (19:20) 0 0 0 0 0
01-04-2019 14.6 (17:40) 8.4 (00:00) 11.5 6.67 (07:50) 2.78 (15:20) 1.8 0 1.6 0.2 0
31-03-2019 16.2 (16:00) 9.3 (00:00) 12.8 7.5 (21:40) 3.33 (21:40) 8.4 3.2 0 0 5.2
30-03-2019 16.7 (13:30) 8.4 (00:00) 12.6 10.56 (06:00) 5.56 (06:20) 0 0 0 0 0
29-03-2019 14.9 (14:30) 8.1 (00:00) 11.5 13.61 (21:50) 6.39 (22:30) 0 0 0 0 0
28-03-2019 14.2 (14:00) 7.1 (00:00) 10.6 12.78 (15:20) 6.67 (12:10) 0 0 0 0 0
27-03-2019 15.1 (16:00) 7.8 (00:00) 11.5 14.44 (05:30) 6.11 (04:30) 0 0 0 0 0
26-03-2019 17.2 (12:40) 9.6 (00:00) 13.4 14.44 (14:10) 6.94 (13:00) 0 0 0 0 0
25-03-2019 18.7 (14:50) 9.6 (00:00) 14.2 10.28 (12:30) 4.72 (14:00) 0 0 0 0 0
24-03-2019 16.4 (15:40) 9.5 (00:00) 12.9 11.94 (12:20) 5.83 (12:50) 0 0 0 0 0
23-03-2019 14.9 (15:10) 8.7 (00:00) 11.8 11.94 (11:40) 5.83 (11:40) 0 0 0 0 0
22-03-2019 15.1 (14:10) 7.3 (00:00) 11.2 8.33 (15:10) 3.89 (15:10) 0 0 0 0 0
21-03-2019 13.5 (15:10) 5.7 (00:00) 9.6 10.56 (12:00) 3.89 (10:30) 0 0 0 0 0
20-03-2019 13.8 (15:10) 7.1 (00:00) 10.5 9.72 (13:10) 5 (13:40) 0 0 0 0 0
19-03-2019 16.7 (15:00) 7 (00:00) 11.9 8.33 (18:50) 4.17 (18:00) 0 0 0 0 0

Gráficas

Temp. máximas Temp. mínimas Temp. medias Precipitaciones Rachas de viento máximas Velocidades máximas media en intervalos de 10 minutos

Datos horarios

Fecha y hora oficial Temperatura (ºC) Velocidad del viento (km/h) Dirección del viento Racha (km/h) Dirección de racha Precipitación (mm) Presión (hPa) Tendencia (hPa) Humedad (%)
2019-04-17 23:00:00 11.7 6 Sudeste 17 Sur 0 -- -- 80
2019-04-17 22:00:00 11.1 6 Noroeste 24 Noroeste 0 -- -- 82
2019-04-17 21:00:00 12 9 Noroeste 21 Oeste 0 -- -- 78
2019-04-17 20:00:00 13.6 4 Sur 20 Sur 0 -- -- 71
2019-04-17 19:00:00 13.7 4 Noroeste 15 Sudeste 0 -- -- 74
2019-04-17 18:00:00 14.5 3 Noroeste 20 Sudoeste 0 -- -- 71
2019-04-17 17:00:00 14.6 6 Sur 23 Sur 0 -- -- 69
2019-04-17 16:00:00 15.4 7 Este 27 Oeste 0 -- -- 64
2019-04-17 15:00:00 15.5 10 Noroeste 27 Noroeste 0 -- -- 68
2019-04-17 14:00:00 16.7 9 Sudoeste 33 Oeste 0 -- -- 60
2019-04-17 13:00:00 16.2 10 Sur 38 Sur 0 -- -- 63
2019-04-17 12:00:00 16.2 10 Sur 42 Sudeste 0 -- -- 60
2019-04-17 11:00:00 15.7 9 Sur 38 Sur 0 -- -- 58
2019-04-17 10:00:00 14.4 8 Sur 36 Sudeste 0 -- -- 57
2019-04-17 09:00:00 13.2 17 Sur 37 Sur 0 -- -- 57
2019-04-17 08:00:00 12.9 13 Sur 37 Sudoeste 0 -- -- 52
2019-04-17 07:00:00 13.2 13 Sur 41 Sur 0 -- -- 44
2019-04-17 06:00:00 13.3 12 Sur 37 Sur 0 -- -- 46
2019-04-17 05:00:00 13.9 9 Norte 27 Oeste 0 -- -- 42
2019-04-17 04:00:00 14 6 Norte 27 Sudeste 0 -- -- 41
2019-04-17 03:00:00 13.9 5 Norte 28 Sur 0 -- -- 39
2019-04-17 02:00:00 14.3 8 Sudeste 26 Este 0 -- -- 33
2019-04-17 01:00:00 14.6 5 Sudeste 21 Oeste 0 -- -- 39
2019-04-17 00:00:00 15 11 Este 36 Este 0 -- -- 38
2019-04-16 23:00:00 15.5 5 Sudeste 20 Sur 0 -- -- 39
2019-04-16 22:00:00 15.5 6 Sur 21 Sudeste 0 -- -- 51
2019-04-16 21:00:00 16.3 0 Calma 14 Sur 0 -- -- 54
2019-04-16 20:00:00 18.8 9 Sur 21 Sur 0 -- -- 44
2019-04-16 19:00:00 21.3 8 Sur 25 Sur 0 -- -- 40
2019-04-16 18:00:00 22 9 Sur 24 Oeste 0 -- -- 35
2019-04-16 17:00:00 22.3 10 Sur 24 Sudoeste 0 -- -- 32
2019-04-16 16:00:00 22.1 9 Sudoeste 28 Sur 0 -- -- 26
2019-04-16 15:00:00 22.1 8 Sur 24 Sur 0 -- -- 25
2019-04-16 14:00:00 21.3 10 Sur 23 Sur 0 -- -- 36
2019-04-16 13:00:00 19.2 4 Sur 10 Sudoeste 0 -- -- 44
2019-04-16 12:00:00 17.3 3 Sudoeste 8 Sudoeste 0 -- -- 57
2019-04-16 11:00:00 15.2 4 Sudoeste 7 Noroeste 0 -- -- 66
2019-04-16 10:00:00 13.9 3 Norte 6 Nordeste 0 -- -- 68
2019-04-16 09:00:00 10.8 0 Calma 5 Nordeste 0 -- -- 80
2019-04-16 08:00:00 8.4 2 Sur 5 Sudoeste 0 -- -- 86
2019-04-16 07:00:00 8.8 3 Este 7 Este 0 -- -- 87
2019-04-16 06:00:00 8.9 5 Este 7 Este 0 -- -- 86
2019-04-16 05:00:00 9.1 0 Calma 6 Sudeste 0 -- -- 85
2019-04-16 04:00:00 9.8 0 Calma 4 Este 0 -- -- 83
2019-04-16 03:00:00 10 3 Este 5 Este 0 -- -- 82
2019-04-16 02:00:00 10.6 2 Este 6 Este 0 -- -- 84
2019-04-16 01:00:00 10.7 0 Calma 6 Noroeste 0 -- -- 84
2019-04-16 00:00:00 11.3 2 Noroeste 21 Noroeste 0 -- -- 83
2019-04-15 23:00:00 12.6 11 Oeste 19 Oeste 0 -- -- 78
2019-04-15 22:00:00 13.6 4 Noroeste 20 Norte 0 -- -- 73
2019-04-15 21:00:00 14.5 11 Noroeste 24 Noroeste 0 -- -- 66
2019-04-15 20:00:00 17.1 5 Norte 30 Sudoeste 0 -- -- 51
2019-04-15 19:00:00 19.2 8 Noroeste 43 Noroeste 0 -- -- 38
2019-04-15 18:00:00 20.9 12 Noroeste 44 Oeste 0 -- -- 32
2019-04-15 17:00:00 22.1 14 Noroeste 33 Noroeste 0 -- -- 35
2019-04-15 16:00:00 22.3 14 Noroeste 41 Noroeste 0 -- -- 32
2019-04-15 15:00:00 23.5 11 Sudoeste 37 Sur 0 -- -- 35
2019-04-15 14:00:00 22.7 10 Sur 28 Sudoeste 0 -- -- 31
2019-04-15 13:00:00 21.4 11 Sur 28 Sur 0 -- -- 36
2019-04-15 12:00:00 21.3 6 Sur 16 Sudoeste 0 -- -- 37
2019-04-15 11:00:00 20 5 Sudoeste 15 Sudoeste 0 -- -- 38
2019-04-15 10:00:00 18.5 5 Sur 14 Sur 0 -- -- 43
2019-04-15 09:00:00 16.5 3 Sudoeste 21 Sur 0 -- -- 49
2019-04-15 08:00:00 15 3 Sudoeste 12 Sur 0 -- -- 44
2019-04-15 07:00:00 14.9 0 Calma 6 Oeste 0 -- -- 49
2019-04-15 06:00:00 15.2 2 Oeste 16 Sur 0 -- -- 56
2019-04-15 05:00:00 15.5 4 Sudoeste 14 Sudoeste 0 -- -- 57
2019-04-15 04:00:00 15.3 0 Calma 9 Sudoeste 0 -- -- 61
2019-04-15 03:00:00 15.8 3 Sudoeste 6 Sur 0 -- -- 61
2019-04-15 02:00:00 16.2 0 Calma 5 Sudoeste 0 -- -- 62
2019-04-15 01:00:00 16.6 0 Calma 4 Sudeste 0 -- -- 62
2019-04-15 00:00:00 17 2 Sur 5 Este 0 -- -- 61
2019-04-14 23:00:00 17.5 3 Este 6 Este 0 -- -- 60
2019-04-14 22:00:00 18.1 0 Calma 9 Oeste 0 -- -- 53
2019-04-14 21:00:00 19.3 3 Oeste 13 Oeste 0 -- -- 50
2019-04-14 20:00:00 21.1 7 Oeste 24 Noroeste 0 -- -- 48
2019-04-14 19:00:00 23.4 12 Noroeste 24 Oeste 0 -- -- 44
2019-04-14 18:00:00 24.4 9 Noroeste 24 Noroeste 0 -- -- 41
2019-04-14 17:00:00 24.2 9 Noroeste 18 Noroeste 0 -- -- 40
2019-04-14 16:00:00 24 5 Oeste 19 Noroeste 0 -- -- 40
2019-04-14 15:00:00 23.2 3 Noroeste 17 Oeste 0 -- -- 42
2019-04-14 14:00:00 21.9 5 Oeste 14 Oeste 0 -- -- 42
2019-04-14 13:00:00 20.9 6 Oeste 18 Noroeste 0 -- -- 38
2019-04-14 12:00:00 19.5 4 Sudoeste 7 Noroeste 0 -- -- 54
2019-04-14 11:00:00 18.4 0 Calma 4 Noroeste 0 -- -- 48
2019-04-14 10:00:00 16.7 0 Calma 4 Sudeste 0 -- -- 55
2019-04-14 09:00:00 12 2 Este 6 Este 0 -- -- 62
2019-04-14 08:00:00 10.1 4 Este 7 Este 0 -- -- 67
2019-04-14 07:00:00 10.2 3 Este 6 Este 0 -- -- 66
2019-04-14 06:00:00 10.6 4 Este 8 Este 0 -- -- 64
2019-04-14 05:00:00 10.7 5 Este 9 Este 0 -- -- 63
2019-04-14 04:00:00 10.6 4 Este 6 Este 0 -- -- 65
2019-04-14 03:00:00 10.6 5 Este 7 Este 0 -- -- 65
2019-04-14 02:00:00 10.6 4 Este 8 Este 0 -- -- 66
2019-04-14 01:00:00 11.3 0 Calma 7 Este 0 -- -- 65
2019-04-14 00:00:00 12.2 3 Este 6 Sudeste 0 -- -- 62
2019-04-13 23:00:00 13.1 4 Norte 9 Noroeste 0 -- -- 57
2019-04-13 22:00:00 14 5 Noroeste 13 Noroeste 0 -- -- 55
2019-04-13 21:00:00 15.6 6 Oeste 23 Noroeste 0 -- -- 51
2019-04-13 20:00:00 17.5 12 Oeste 26 Noroeste 0 -- -- 39
2019-04-13 19:00:00 19.3 14 Noroeste 24 Noroeste 0 -- -- 37
2019-04-13 18:00:00 20.3 12 Noroeste 23 Oeste 0 -- -- 37
2019-04-13 17:00:00 20.6 10 Noroeste 23 Noroeste 0 -- -- 38
2019-04-13 16:00:00 20.2 8 Oeste 20 Noroeste 0 -- -- 35
2019-04-13 15:00:00 19.2 5 Sudoeste 19 Noroeste 0 -- -- 34
2019-04-13 14:00:00 18.4 5 Noroeste 15 Noroeste 0 -- -- 35
2019-04-13 13:00:00 17.8 6 Norte 13 Nordeste 0 -- -- 40
2019-04-13 12:00:00 17.3 3 Norte 7 Este 0 -- -- 40
2019-04-13 11:00:00 16.3 3 Noroeste 6 Oeste 0 -- -- 44
2019-04-13 10:00:00 14.4 0 Calma 5 Este 0 -- -- 51
2019-04-13 09:00:00 9.7 3 Sudeste 7 Sudeste 0 -- -- 62
2019-04-13 08:00:00 7.5 5 Sudeste 6 Sudeste 0 -- -- 69
2019-04-13 07:00:00 7.5 0 Calma 9 Este 0 -- -- 70
2019-04-13 06:00:00 8.1 3 Este 9 Este 0 -- -- 68
2019-04-13 05:00:00 8.4 3 Este 5 Este 0 -- -- 67
2019-04-13 04:00:00 8.7 3 Este 6 Este 0 -- -- 67
2019-04-13 03:00:00 8.7 3 Este 6 Este 0 -- -- 66
2019-04-13 02:00:00 9.1 3 Este 6 Sudeste 0 -- -- 64
2019-04-13 01:00:00 10 2 Este 5 Sudeste 0 -- -- 60
2019-04-13 00:00:00 10.8 0 Calma 9 Oeste 0 -- -- 59
2019-04-12 23:00:00 11.4 2 Este 8 Noroeste 0 -- -- 56
2019-04-12 22:00:00 12.5 0 Calma 12 Noroeste 0 -- -- 48
2019-04-12 21:00:00 14.1 5 Noroeste 19 Noroeste 0 -- -- 45
2019-04-12 20:00:00 16.1 7 Noroeste 20 Noroeste 0 -- -- 41
2019-04-12 19:00:00 17.7 9 Noroeste 23 Oeste 0 -- -- 37
2019-04-12 18:00:00 18.5 12 Noroeste 27 Oeste 0 -- -- 34
2019-04-12 17:00:00 18.3 9 Noroeste 19 Noroeste 0 -- -- 36
2019-04-12 16:00:00 18.1 9 Noroeste 19 Oeste 0 -- -- 36
2019-04-12 15:00:00 17.2 6 Noroeste 23 Noroeste 0 -- -- 37
2019-04-12 14:00:00 16.9 5 Este 16 Este 0 -- -- 38
2019-04-12 13:00:00 16.1 8 Norte 19 Nordeste 0 -- -- 38
2019-04-12 12:00:00 15.8 5 Norte 13 Norte 0 -- -- 39
2019-04-12 11:00:00 14.8 4 Norte 8 Nordeste 0 -- -- 50
2019-04-12 10:00:00 13.2 0 Calma 5 Este 0 -- -- 58
2019-04-12 09:00:00 8.6 3 Este 7 Este 0 -- -- 66
2019-04-12 08:00:00 6.6 4 Este 6 Este 0 -- -- 78
2019-04-12 07:00:00 6.7 0 Calma 4 Sudeste 0 -- -- 82
2019-04-12 06:00:00 6.9 0 Calma 3 Sudeste 0 -- -- 80
2019-04-12 05:00:00 7.1 0 Calma 5 Sudeste 0 -- -- 81
2019-04-12 04:00:00 7.6 4 Este 6 Este 0 -- -- 79
2019-04-12 03:00:00 8 4 Este 8 Este 0 -- -- 78
2019-04-12 02:00:00 8.1 4 Este 6 Este 0 -- -- 77
2019-04-12 01:00:00 9 0 Calma 8 Noroeste 0 -- -- 76
2019-04-12 00:00:00 9.6 3 Oeste 7 Noroeste 0 -- -- 73
2019-04-11 23:00:00 10.2 0 Calma 8 Oeste 0 -- -- 66
2019-04-11 22:00:00 11.1 0 Calma 12 Noroeste 0 -- -- 62
2019-04-11 21:00:00 12.4 6 Noroeste 20 Noroeste 0 -- -- 55
2019-04-11 20:00:00 14.1 9 Noroeste 17 Noroeste 0 -- -- 49
2019-04-11 19:00:00 15.2 13 Noroeste 26 Oeste 0 -- -- 45
2019-04-11 18:00:00 15 10 Noroeste 24 Noroeste 0 -- -- 48
2019-04-11 17:00:00 15.4 11 Noroeste 31 Noroeste 0 -- -- 51
2019-04-11 16:00:00 14.8 10 Noroeste 26 Noroeste 0 -- -- 53
2019-04-11 15:00:00 14.4 12 Noroeste 28 Oeste 0 -- -- 54
2019-04-11 14:00:00 15 18 Oeste 32 Noroeste 0 -- -- 48
2019-04-11 13:00:00 14.7 12 Noroeste 25 Norte 0 -- -- 50
2019-04-11 12:00:00 14 2 Oeste 8 Sudoeste 0 -- -- 58
2019-04-11 11:00:00 12.3 3 Sudoeste 6 Oeste 0 -- -- 62
2019-04-11 10:00:00 11 2 Sudoeste 4 Sudoeste 0 -- -- 67
2019-04-11 09:00:00 7.1 3 Este 5 Este 0 -- -- 83
2019-04-11 08:00:00 5.4 3 Este 5 Este 0 -- -- 86
2019-04-11 07:00:00 5.7 0 Calma 6 Este 0 -- -- 85
2019-04-11 06:00:00 6.1 4 Este 6 Este 0 -- -- 82
2019-04-11 05:00:00 6.4 3 Este 7 Este 0 -- -- 80
2019-04-11 04:00:00 7.5 3 Este 12 Noroeste 0 -- -- 75
2019-04-11 03:00:00 8 3 Noroeste 8 Noroeste 0 -- -- 72
2019-04-11 02:00:00 8.2 0 Calma 9 Oeste 0 -- -- 73
2019-04-11 01:00:00 9.2 5 Noroeste 14 Oeste 0 -- -- 66
2019-04-11 00:00:00 9.3 4 Noroeste 13 Norte 0 -- -- 67
2019-04-10 23:00:00 9.8 5 Oeste 19 Oeste 0 -- -- 79
2019-04-10 22:00:00 10.4 9 Oeste 23 Oeste 0 -- -- 77
2019-04-10 21:00:00 11.2 11 Oeste 28 Sudoeste 0 -- -- 70
2019-04-10 20:00:00 12.4 13 Oeste 34 Oeste 0 -- -- 62
2019-04-10 19:00:00 12.6 14 Oeste 35 Noroeste 0 -- -- 59
2019-04-10 18:00:00 13.5 14 Oeste 34 Noroeste 0 -- -- 56
2019-04-10 17:00:00 13 13 Noroeste 29 Noroeste 0 -- -- 59
2019-04-10 16:00:00 11.9 12 Noroeste 28 Noroeste 0 -- -- 62
2019-04-10 15:00:00 11.3 13 Noroeste 27 Oeste 0 -- -- 64
2019-04-10 14:00:00 11.3 9 Noroeste 26 Noroeste 0 -- -- 65
2019-04-10 13:00:00 10.6 9 Noroeste 19 Noroeste 0 -- -- 68
2019-04-10 12:00:00 9.8 10 Noroeste 23 Noroeste 0 -- -- 71
2019-04-10 11:00:00 8.1 9 Noroeste 20 Noroeste 0 -- -- 76
2019-04-10 10:00:00 6.9 5 Noroeste 13 Noroeste 0 -- -- 86
2019-04-10 09:00:00 6.1 2 Norte 9 Oeste 0 -- -- 90
2019-04-10 08:00:00 5.7 3 Oeste 13 Noroeste 0 -- -- 89
2019-04-10 07:00:00 6.4 3 Noroeste 18 Noroeste 0 -- -- 87
2019-04-10 06:00:00 6.9 9 Noroeste 21 Noroeste 0 -- -- 87
2019-04-10 05:00:00 7.5 8 Noroeste 18 Noroeste 0 -- -- 86
2019-04-10 04:00:00 8 8 Noroeste 28 Oeste 0 -- -- 86
2019-04-10 03:00:00 8.2 5 Noroeste 22 Oeste 0 -- -- 89
2019-04-10 02:00:00 8.6 7 Oeste 21 Oeste 0 -- -- 88
2019-04-10 01:00:00 9.1 9 Oeste 23 Noroeste 0 -- -- 88
2019-04-10 00:00:00 9.2 4 Oeste 8 Oeste 0 -- -- 82
2019-04-09 23:00:00 9.1 2 Nordeste 12 Noroeste 0 -- -- 80
2019-04-09 22:00:00 9.6 6 Noroeste 21 Oeste 0 -- -- 75
2019-04-09 21:00:00 10.1 9 Noroeste 24 Oeste 0 -- -- 72
2019-04-09 20:00:00 11.8 8 Noroeste 30 Oeste 0 -- -- 67
2019-04-09 19:00:00 12.6 13 Noroeste 32 Noroeste 0 -- -- 61
2019-04-09 18:00:00 12.9 12 Noroeste 39 Noroeste 0 -- -- 63
2019-04-09 17:00:00 13.7 14 Noroeste 41 Noroeste 0 -- -- 58
2019-04-09 16:00:00 13.5 12 Noroeste 30 Oeste 0 -- -- 56
2019-04-09 15:00:00 11.5 13 Oeste 28 Noroeste 0 -- -- 75
2019-04-09 14:00:00 9.9 8 Noroeste 31 Noroeste 0 -- -- 83
2019-04-09 13:00:00 10.6 10 Oeste 27 Noroeste 0 -- -- 68
2019-04-09 12:00:00 10.4 11 Oeste 23 Noroeste 0 -- -- 66
2019-04-09 11:00:00 8.6 6 Noroeste 17 Oeste 0 -- -- 87
2019-04-09 10:00:00 7.9 7 Noroeste 20 Oeste 0 -- -- 88
2019-04-09 09:00:00 7 5 Oeste 17 Noroeste 0 -- -- 90
2019-04-09 08:00:00 6.6 7 Noroeste 16 Noroeste 0 -- -- 90
2019-04-09 07:00:00 6.7 6 Oeste 22 Oeste 0 -- -- 89
2019-04-09 06:00:00 6.7 9 Oeste 27 Oeste 0 -- -- 88
2019-04-09 05:00:00 7 9 Oeste 20 Noroeste 0 -- -- 87
2019-04-09 04:00:00 7.4 8 Oeste 25 Noroeste 0 -- -- 87
2019-04-09 03:00:00 8.1 5 Noroeste 16 Noroeste 0 -- -- 84
2019-04-09 02:00:00 8.6 4 Noroeste 29 Oeste 0 -- -- 83
2019-04-09 01:00:00 8.8 2 Noroeste 15 Oeste 0 -- -- 84
2019-04-09 00:00:00 8.9 4 Este 20 Sudoeste 0 -- -- 79
2019-04-08 23:00:00 9.2 5 Oeste 25 Sur 0 -- -- 82
2019-04-08 22:00:00 9.5 5 Noroeste 21 Noroeste 0 -- -- 86
2019-04-08 21:00:00 9.9 8 Oeste 26 Oeste 0 -- -- 85
2019-04-08 20:00:00 10.2 5 Nordeste 15 Sur 0 -- -- 93
2019-04-08 19:00:00 10.8 6 Sur 18 Sudoeste 0 -- -- 92
2019-04-08 18:00:00 11.6 4 Norte 20 Norte 0.4 -- -- 90
2019-04-08 17:00:00 12.6 7 Este 30 Sudoeste 0 -- -- 79
2019-04-08 16:00:00 12.3 6 Sudeste 28 Sudoeste 0 -- -- 78
2019-04-08 15:00:00 12 8 Sudoeste 29 Noroeste 0 -- -- 80
2019-04-08 14:00:00 11.9 9 Noroeste 25 Oeste 0 -- -- 82
2019-04-08 13:00:00 11.9 8 Sur 28 Sur 0 -- -- 76
2019-04-08 12:00:00 11.3 8 Sur 28 Sudoeste 0 -- -- 87
2019-04-08 11:00:00 10.8 4 Sur 18 Sudoeste 0 -- -- 84
2019-04-08 10:00:00 10.3 6 Sudeste 16 Sudoeste 0 -- -- 84
2019-04-08 09:00:00 9.7 3 Noroeste 14 Sudoeste 0 -- -- 88
2019-04-08 08:00:00 9.6 4 Sudoeste 14 Sudoeste 0 -- -- 91
2019-04-08 07:00:00 9.6 0 Calma 13 Sudoeste 0 -- -- 91
2019-04-08 06:00:00 9.9 2 Sur 14 Sur 0 -- -- 90
2019-04-08 05:00:00 10 3 Sur 16 Sur 0 -- -- 88
2019-04-08 04:00:00 10 3 Sudoeste 16 Sur 0 -- -- 88
2019-04-08 03:00:00 10.1 3 Sudoeste 18 Sur 0 -- -- 90
2019-04-08 02:00:00 10 5 Sudoeste 18 Sur 0 -- -- 92
2019-04-08 01:00:00 9.9 0 Calma 14 Sudoeste 0.4 -- -- 93
2019-04-08 00:00:00 9.9 3 Sudoeste 16 Oeste 0 -- -- 95
2019-04-07 23:00:00 9.9 3 Oeste 12 Sudoeste 0 -- -- 96
2019-04-07 22:00:00 10.2 5 Oeste 21 Sudoeste 0.2 -- -- 96
2019-04-07 21:00:00 10.2 3 Noroeste 30 Oeste 1 -- -- 95
2019-04-07 20:00:00 10.5 7 Oeste 18 Sudoeste 2 -- -- 94
2019-04-07 19:00:00 10.6 5 Sudoeste 19 Oeste 0.4 -- -- 92
2019-04-07 18:00:00 10.8 6 Sudoeste 21 Sudoeste 0 -- -- 89
2019-04-07 17:00:00 11.8 8 Sudoeste 32 Sur 0 -- -- 80
2019-04-07 16:00:00 11.6 8 Sudoeste 27 Noroeste 0 -- -- 78
2019-04-07 15:00:00 11.2 5 Sur 23 Oeste 0 -- -- 81
2019-04-07 14:00:00 9.7 9 Noroeste 41 Oeste 0 -- -- 81
2019-04-07 13:00:00 8.9 4 Norte 24 Noroeste 0.2 -- -- 85
2019-04-07 12:00:00 8.1 5 Oeste 19 Noroeste 0 -- -- 91
2019-04-07 11:00:00 7.9 6 Noroeste 15 Noroeste 0 -- -- 90
2019-04-07 10:00:00 7.1 5 Noroeste 15 Noroeste 0 -- -- 91
2019-04-07 09:00:00 7 5 Oeste 17 Sudoeste 0 -- -- 86
2019-04-07 08:00:00 6.6 5 Oeste 24 Oeste 0 -- -- 86
2019-04-07 07:00:00 6.2 6 Noroeste 22 Oeste 0.2 -- -- 88
2019-04-07 06:00:00 6 5 Oeste 22 Oeste 0.8 -- -- 88
2019-04-07 05:00:00 6.5 8 Noroeste 23 Oeste 0 -- -- 87
2019-04-07 04:00:00 7 12 Noroeste 28 Noroeste 0 -- -- 80
2019-04-07 03:00:00 7 9 Noroeste 25 Oeste 0 -- -- 81
2019-04-07 02:00:00 7 9 Noroeste 23 Noroeste 0 -- -- 83
2019-04-07 01:00:00 6.7 6 Oeste 28 Noroeste 0 -- -- 89
2019-04-07 00:00:00 6.9 12 Noroeste 31 Noroeste 0 -- -- 86
2019-04-06 23:00:00 6.9 11 Noroeste 36 Noroeste 0 -- -- 89
2019-04-06 22:00:00 6.7 15 Noroeste 40 Noroeste 1.2 -- -- 89
2019-04-06 21:00:00 7.2 16 Noroeste 41 Oeste 0.6 -- -- 84
2019-04-06 20:00:00 8 10 Noroeste 46 Sudoeste 0.2 -- -- 79
2019-04-06 19:00:00 8.7 11 Noroeste 40 Oeste 0.4 -- -- 79
2019-04-06 18:00:00 7.6 13 Noroeste 33 Oeste 0.4 -- -- 84
2019-04-06 17:00:00 8.8 10 Noroeste 40 Noroeste 0.8 -- -- 78
2019-04-06 16:00:00 8.2 12 Noroeste 27 Noroeste 0 -- -- 83
2019-04-06 15:00:00 9.1 8 Sudoeste 31 Noroeste 1.4 -- -- 80
2019-04-06 14:00:00 8.3 7 Sur 28 Oeste 0 -- -- 81
2019-04-06 13:00:00 6.9 4 Sudeste 28 Noroeste 0.6 -- -- 89
2019-04-06 12:00:00 6.9 8 Noroeste 16 Noroeste 1 -- -- 88
2019-04-06 11:00:00 5.8 3 Sur 15 Sudoeste 1.8 -- -- 92
2019-04-06 10:00:00 5.6 0 Calma 8 Sudoeste 0 -- -- 90
2019-04-06 09:00:00 4.9 0 Calma 24 Sudoeste 0.4 -- -- 91
2019-04-06 08:00:00 5.2 2 Este 22 Sudoeste 0.6 -- -- 88
2019-04-06 07:00:00 5.9 10 Oeste 32 Noroeste 0 -- -- 77
2019-04-06 06:00:00 5.6 8 Oeste 22 Sudoeste 0 -- -- 77
2019-04-06 05:00:00 5.5 8 Oeste 22 Noroeste 0 -- -- 78
2019-04-06 04:00:00 5.4 5 Oeste 17 Noroeste 0 -- -- 78
2019-04-06 03:00:00 5.2 5 Oeste 21 Oeste 0 -- -- 78
2019-04-06 02:00:00 5.5 8 Noroeste 22 Noroeste 0 -- -- 79
2019-04-06 01:00:00 5.6 13 Oeste 38 Oeste 0 -- -- 76
2019-04-06 00:00:00 5.9 15 Oeste 35 Oeste 0 -- -- 76
2019-04-05 23:00:00 5.8 13 Noroeste 32 Noroeste 0 -- -- 79
2019-04-05 22:00:00 5.8 13 Noroeste 36 Oeste 0.4 -- -- 85
2019-04-05 21:00:00 6.1 13 Noroeste 32 Oeste 0 -- -- 77
2019-04-05 20:00:00 6.1 8 Noroeste 38 Oeste 0 -- -- 80
2019-04-05 19:00:00 9.3 17 Noroeste 54 Oeste 0 -- -- 57
2019-04-05 18:00:00 9.7 19 Noroeste 44 Noroeste 0 -- -- 56
2019-04-05 17:00:00 10.1 17 Noroeste 49 Oeste 0 -- -- 61
2019-04-05 16:00:00 9.7 14 Noroeste 43 Noroeste 0 -- -- 61
2019-04-05 15:00:00 8.6 14 Noroeste 32 Oeste 0 -- -- 68
2019-04-05 14:00:00 6.6 14 Noroeste 27 Noroeste 0.2 -- -- 90
2019-04-05 13:00:00 6.6 9 Noroeste 35 Oeste 2 -- -- 91
2019-04-05 12:00:00 7.8 8 Este 36 Sudoeste 0.4 -- -- 86
2019-04-05 11:00:00 6.8 9 Sudoeste 30 Sudoeste 0 -- -- 90
2019-04-05 10:00:00 6.1 8 Sur 27 Oeste 0.8 -- -- 89
2019-04-05 09:00:00 6.8 9 Noroeste 28 Sudoeste 3 -- -- 93
2019-04-05 08:00:00 6.8 5 Sur 24 Sur 2.4 -- -- 92
2019-04-05 07:00:00 6.8 15 Sur 36 Sudoeste 0 -- -- 88
2019-04-05 06:00:00 7.1 7 Sur 22 Sur 0 -- -- 81
2019-04-05 05:00:00 6.8 5 Sur 28 Sudoeste 0 -- -- 78
2019-04-05 04:00:00 7.2 8 Sur 22 Sur 0 -- -- 76
2019-04-05 03:00:00 7.5 6 Sur 27 Sudoeste 0 -- -- 70
2019-04-05 02:00:00 7.3 8 Sur 23 Sudoeste 0 -- -- 73
2019-04-05 01:00:00 6.8 7 Sur 27 Sudoeste 0 -- -- 71
2019-04-05 00:00:00 6.3 6 Sur 19 Sur 0 -- -- 66
2019-04-04 23:00:00 7 6 Sur 18 Sudoeste 0 -- -- 59
2019-04-04 22:00:00 7.9 7 Sur 19 Sudoeste 0 -- -- 57
2019-04-04 21:00:00 9.4 4 Sudeste 20 Oeste 0 -- -- 56
2019-04-04 20:00:00 11.8 7 Sur 31 Oeste 0 -- -- 54
2019-04-04 19:00:00 14.5 12 Noroeste 30 Oeste 0 -- -- 46
2019-04-04 18:00:00 15.3 8 Oeste 27 Oeste 0 -- -- 42
2019-04-04 17:00:00 15.8 8 Sudoeste 26 Norte 0 -- -- 39
2019-04-04 16:00:00 16 14 Noroeste 26 Noroeste 0 -- -- 40
2019-04-04 15:00:00 15.1 12 Noroeste 25 Noroeste 0 -- -- 41
2019-04-04 14:00:00 14.5 8 Noroeste 22 Noroeste 0 -- -- 43
2019-04-04 13:00:00 14 4 Oeste 17 Noroeste 0 -- -- 44
2019-04-04 12:00:00 12.4 2 Oeste 10 Noroeste 0 -- -- 43
2019-04-04 11:00:00 10.4 3 Sudoeste 6 Sudoeste 0 -- -- 46
2019-04-04 10:00:00 8.8 3 Sudoeste 6 Sur 0 -- -- 65
2019-04-04 09:00:00 5.2 3 Este 5 Sudeste 0 -- -- 69
2019-04-04 08:00:00 4.8 3 Este 4 Este 0 -- -- 82
2019-04-04 07:00:00 5.4 0 Calma 4 Este 0 -- -- 82
2019-04-04 06:00:00 6.3 0 Calma 4 Noroeste 0 -- -- 79
2019-04-04 05:00:00 7.1 0 Calma 8 Este 0 -- -- 77
2019-04-04 04:00:00 7.6 2 Nordeste 8 Nordeste 0 -- -- 75
2019-04-04 03:00:00 7.9 2 Nordeste 5 Oeste 0 -- -- 73
2019-04-04 02:00:00 8.8 2 Noroeste 19 Oeste 0 -- -- 68
2019-04-04 01:00:00 9.9 10 Oeste 23 Noroeste 0 -- -- 63
2019-04-04 00:00:00 10.1 4 Noroeste 14 Oeste 0 -- -- 64
2019-04-03 23:00:00 10.9 6 Noroeste 13 Noroeste 0 -- -- 59
2019-04-03 22:00:00 11.6 5 Oeste 13 Noroeste 0 -- -- 55
2019-04-03 21:00:00 12.7 7 Oeste 28 Oeste 0 -- -- 55
2019-04-03 20:00:00 14.7 14 Oeste 35 Noroeste 0 -- -- 48
2019-04-03 19:00:00 17.1 15 Oeste 33 Noroeste 0 -- -- 44
2019-04-03 18:00:00 18.1 13 Noroeste 27 Noroeste 0 -- -- 46
2019-04-03 17:00:00 18.5 14 Noroeste 30 Noroeste 0 -- -- 47
2019-04-03 16:00:00 18.3 13 Noroeste 28 Oeste 0 -- -- 45
2019-04-03 15:00:00 18.3 14 Noroeste 29 Oeste 0 -- -- 50
2019-04-03 14:00:00 18.7 9 Noroeste 22 Oeste 0 -- -- 50
2019-04-03 13:00:00 17.7 6 Noroeste 17 Noroeste 0 -- -- 52
2019-04-03 12:00:00 15.8 3 Sudoeste 6 Sudoeste 0 -- -- 58
2019-04-03 11:00:00 14.8 3 Oeste 5 Sudoeste 0 -- -- 63
2019-04-03 10:00:00 12.8 0 Calma 5 Este 0 -- -- 68
2019-04-03 09:00:00 8.3 4 Este 6 Este 0 -- -- 77
2019-04-03 08:00:00 7.7 4 Este 8 Este 0 -- -- 77
2019-04-03 07:00:00 7.7 5 Este 8 Este 0 -- -- 76
2019-04-03 06:00:00 8 4 Este 5 Este 0 -- -- 78
2019-04-03 05:00:00 8.5 4 Este 6 Este 0 -- -- 80
2019-04-03 04:00:00 9 2 Sudeste 6 Este 0 -- -- 83
2019-04-03 03:00:00 9.3 0 Calma 6 Este 0 -- -- 83
2019-04-03 02:00:00 9.9 3 Este 6 Este 0 -- -- 82
2019-04-03 01:00:00 10.5 2 Este 6 Este 0 -- -- 81
2019-04-03 00:00:00 11.5 0 Calma 4 Este 0 -- -- 77
2019-04-02 23:00:00 12.2 0 Calma 5 Este 0 -- -- 76
2019-04-02 22:00:00 12.6 0 Calma 9 Noroeste 0 -- -- 70
2019-04-02 21:00:00 13.6 0 Calma 9 Noroeste 0 -- -- 70
2019-04-02 20:00:00 15 6 Noroeste 17 Oeste 0 -- -- 67
2019-04-02 19:00:00 15.7 6 Noroeste 21 Oeste 0 -- -- 64
2019-04-02 18:00:00 17.4 8 Noroeste 18 Noroeste 0 -- -- 54
2019-04-02 17:00:00 18.3 6 Noroeste 18 Oeste 0 -- -- 44
2019-04-02 16:00:00 18.5 5 Oeste 14 Sur 0 -- -- 45
2019-04-02 15:00:00 17.6 5 Sudoeste 12 Sur 0 -- -- 43
2019-04-02 14:00:00 16.5 5 Noroeste 12 Noroeste 0 -- -- 38
2019-04-02 13:00:00 15.6 5 Noroeste 11 Noroeste 0 -- -- 47
2019-04-02 12:00:00 14.8 4 Sudoeste 7 Sudoeste 0 -- -- 61
2019-04-02 11:00:00 13.2 2 Noroeste 5 Noroeste 0 -- -- 65
2019-04-02 10:00:00 10.5 0 Calma 6 Sudeste 0 -- -- 68
2019-04-02 09:00:00 6.3 0 Calma 3 Este 0 -- -- 84
2019-04-02 08:00:00 5.9 3 Sudeste 4 Este 0 -- -- 84
2019-04-02 07:00:00 5.9 0 Calma 6 Este 0 -- -- 86
2019-04-02 06:00:00 6.3 5 Este 6 Este 0 -- -- 85
2019-04-02 05:00:00 6.5 0 Calma 6 Este 0 -- -- 88
2019-04-02 04:00:00 7 4 Este 6 Este 0 -- -- 87
2019-04-02 03:00:00 7.2 2 Este 5 Este 0 -- -- 87
2019-04-02 02:00:00 7.5 4 Este 5 Este 0 -- -- 87
2019-04-02 01:00:00 8.4 0 Calma 2 Noroeste 0 -- -- 89
2019-04-02 00:00:00 9.3 2 Norte 5 Norte 0 -- -- 87
2019-04-01 23:00:00 9.8 0 Calma 8 Sur 0 -- -- 84
2019-04-01 22:00:00 10.7 2 Sur 13 Sudoeste 0 -- -- 80
2019-04-01 21:00:00 11.5 4 Sur 14 Sudoeste 0 -- -- 79
2019-04-01 20:00:00 12.8 4 Sudeste 15 Sur 0 -- -- 72
2019-04-01 19:00:00 14.2 7 Sur 20 Sur 0 -- -- 71
2019-04-01 18:00:00 13.6 5 Sudeste 20 Sudoeste 0 -- -- 73
2019-04-01 17:00:00 12.8 8 Sur 16 Sudoeste 0.2 -- -- 85
2019-04-01 16:00:00 12.6 7 Sur 20 Sur 0 -- -- 79
2019-04-01 15:00:00 12.6 9 Sur 18 Sur 0 -- -- 79
2019-04-01 14:00:00 10.6 9 Sur 18 Sur 0 -- -- 84
2019-04-01 13:00:00 10.2 9 Sur 17 Sur 0 -- -- 87
2019-04-01 12:00:00 10.7 3 Sur 11 Sudoeste 0.2 -- -- 91
2019-04-01 11:00:00 9.8 0 Calma 9 Sur 0 -- -- 92
2019-04-01 10:00:00 8.9 0 Calma 11 Sur 0.6 -- -- 91
2019-04-01 09:00:00 8.8 0 Calma 13 Sur 0 -- -- 90
2019-04-01 08:00:00 8.7 6 Sur 24 Sur 0.8 -- -- 90
2019-04-01 07:00:00 9 0 Calma 9 Sur 0 -- -- 92
2019-04-01 06:00:00 8.8 0 Calma 14 Sudoeste 0 -- -- 92
2019-04-01 05:00:00 8.8 5 Sur 15 Sur 0 -- -- 91
2019-04-01 04:00:00 8.5 2 Sur 10 Sur 0 -- -- 90
2019-04-01 03:00:00 8.6 0 Calma 6 Este 0 -- -- 93
2019-04-01 02:00:00 9.1 0 Calma 6 Sur 0 -- -- 93
2019-04-01 01:00:00 9.2 0 Calma 3 Sudoeste 0 -- -- 94
2019-04-01 00:00:00 9.6 0 Calma 6 Este 1.4 -- -- 93
2019-03-31 23:00:00 10.1 0 Calma 10 Noroeste 2 -- -- 93
2019-03-31 22:00:00 10.9 6 Oeste 27 Oeste 1.6 -- -- 92
2019-03-31 21:00:00 12 2 Noroeste 10 Oeste 0 -- -- 87
2019-03-31 20:00:00 13.1 3 Oeste 12 Oeste 0 -- -- 79
2019-03-31 19:00:00 12.7 0 Calma 26 Oeste 0.2 -- -- 74
2019-03-31 18:00:00 14.5 3 Este 13 Sur 0 -- -- 77
2019-03-31 17:00:00 14.5 3 Norte 16 Noroeste 0 -- -- 77
2019-03-31 16:00:00 16.2 7 Noroeste 17 Oeste 0 -- -- 64
2019-03-31 15:00:00 15.4 5 Oeste 13 Noroeste 0 -- -- 70
2019-03-31 14:00:00 13.8 0 Calma 7 Noroeste 0 -- -- 76
2019-03-31 13:00:00 13.5 2 Sudoeste 6 Oeste 0 -- -- 79
2019-03-31 12:00:00 12.4 0 Calma 6 Sudoeste 0 -- -- 85
2019-03-31 11:00:00 11.4 3 Sudoeste 8 Sudoeste 0 -- -- 92
2019-03-31 10:00:00 9.7 0 Calma 5 Oeste 0 -- -- 95
2019-03-31 09:00:00 9.3 0 Calma 3 Noroeste 0 -- -- 95
2019-03-31 08:00:00 9.3 0 Calma 3 Este 0 -- -- 95
2019-03-31 07:00:00 9.3 0 Calma 5 Norte 0 -- -- 94
2019-03-31 06:00:00 9.5 0 Calma 4 Oeste 0.8 -- -- 93
2019-03-31 05:00:00 9.6 0 Calma 4 Sudoeste 1.4 -- -- 91
2019-03-31 03:00:00 10.2 2 Este 10 Este 0.2 -- -- 86
2019-03-31 01:00:00 10.4 0 Calma 18 Sur 0 -- -- 83
2019-03-31 00:00:00 10.2 9 Sur 30 Sur 0 -- -- 84
2019-03-30 23:00:00 10.5 14 Sur 31 Sudeste 0 -- -- 78
2019-03-30 22:00:00 11.2 8 Sur 30 Sudeste 0 -- -- 68
2019-03-30 21:00:00 11.2 8 Sudeste 23 Este 0 -- -- 69
2019-03-30 20:00:00 11 11 Sur 30 Sudeste 0 -- -- 71
2019-03-30 19:00:00 11 14 Sudeste 31 Sur 0 -- -- 72
2019-03-30 18:00:00 11.3 15 Sudeste 34 Sur 0 -- -- 74
2019-03-30 17:00:00 13 18 Sur 35 Sur 0 -- -- 68
2019-03-30 16:00:00 15.2 17 Sur 37 Sur 0 -- -- 59
2019-03-30 15:00:00 15.6 13 Sur 32 Sur 0 -- -- 57
2019-03-30 14:00:00 16.1 16 Sur 32 Sur 0 -- -- 53
2019-03-30 13:00:00 16 16 Sur 32 Sur 0 -- -- 50
2019-03-30 12:00:00 14.6 15 Sur 35 Sudeste 0 -- -- 53
2019-03-30 11:00:00 13.7 13 Sur 36 Sur 0 -- -- 58
2019-03-30 10:00:00 12.5 20 Sur 38 Sudeste 0 -- -- 61
2019-03-30 09:00:00 11.4 9 Sur 30 Sudeste 0 -- -- 62
2019-03-30 08:00:00 8.5 14 Sur 32 Sur 0 -- -- 71
2019-03-30 07:00:00 8.5 12 Sur 37 Sudeste 0 -- -- 78
2019-03-30 06:00:00 8.6 19 Sur 38 Sur 0 -- -- 79
2019-03-30 05:00:00 8.8 13 Sudeste 35 Sudeste 0 -- -- 76
2019-03-30 04:00:00 9 17 Sur 36 Este 0 -- -- 75
2019-03-30 03:00:00 9.1 17 Sur 36 Sudeste 0 -- -- 71
2019-03-30 02:00:00 9.2 19 Sur 37 Sudeste 0 -- -- 72
2019-03-30 01:00:00 9.1 15 Sur 37 Sur 0 -- -- 74
2019-03-30 00:00:00 9.1 19 Sur 41 Sur 0 -- -- 76
2019-03-29 23:00:00 9.1 20 Sur 40 Sur 0 -- -- 73
2019-03-29 22:00:00 9.1 18 Sur 49 Sur 0 -- -- 71
2019-03-29 21:00:00 9.6 12 Sur 31 Sur 0 -- -- 66
2019-03-29 20:00:00 10.1 9 Sudeste 24 Sudeste 0 -- -- 65
2019-03-29 19:00:00 11.4 12 Sudeste 28 Sur 0 -- -- 62
2019-03-29 18:00:00 12 13 Sur 33 Sur 0 -- -- 62
2019-03-29 17:00:00 12.9 15 Sur 33 Sur 0 -- -- 58
2019-03-29 16:00:00 14.2 17 Sur 34 Sur 0 -- -- 58
2019-03-29 15:00:00 14.5 18 Sur 34 Sur 0 -- -- 54
2019-03-29 14:00:00 13.7 17 Sur 36 Sur 0 -- -- 58
2019-03-29 13:00:00 12.6 19 Sur 37 Sur 0 -- -- 60
2019-03-29 12:00:00 12.1 21 Sur 41 Sur 0 -- -- 63
2019-03-29 11:00:00 11.8 17 Sur 41 Sur 0 -- -- 64
2019-03-29 10:00:00 11.2 17 Sur 40 Sur 0 -- -- 62
2019-03-29 09:00:00 9.3 20 Sur 44 Sur 0 -- -- 68
2019-03-29 08:00:00 8.3 19 Sur 35 Sudeste 0 -- -- 66
2019-03-29 07:00:00 8.4 17 Sur 35 Sur 0 -- -- 55
2019-03-29 06:00:00 8.3 11 Sur 33 Sudeste 0 -- -- 51
2019-03-29 05:00:00 8.3 15 Sur 41 Sudeste 0 -- -- 54
2019-03-29 04:00:00 8.2 19 Sur 39 Sur 0 -- -- 56
2019-03-29 03:00:00 8.6 13 Sudeste 31 Este 0 -- -- 42
2019-03-29 02:00:00 9 12 Sudeste 34 Sudeste 0 -- -- 34
2019-03-29 01:00:00 8.9 15 Sudeste 36 Sudeste 0 -- -- 40
2019-03-29 00:00:00 9.1 13 Sur 37 Este 0 -- -- 42
2019-03-28 23:00:00 9 9 Sur 35 Sur 0 -- -- 55
2019-03-28 22:00:00 8.9 14 Sur 33 Sudeste 0 -- -- 61
2019-03-28 21:00:00 9.4 12 Sur 35 Sudeste 0 -- -- 44
2019-03-28 20:00:00 10 8 Sur 38 Sur 0 -- -- 36
2019-03-28 19:00:00 11.4 17 Sur 35 Sur 0 -- -- 40
2019-03-28 18:00:00 13.6 15 Sur 31 Sur 0 -- -- 35
2019-03-28 17:00:00 13.6 17 Sur 43 Sudeste 0 -- -- 37
2019-03-28 16:00:00 14.1 22 Sur 46 Sur 0 -- -- 34
2019-03-28 15:00:00 14.2 22 Sur 43 Sur 0 -- -- 36
2019-03-28 14:00:00 14.2 21 Sur 44 Sudeste 0 -- -- 45
2019-03-28 13:00:00 13.7 19 Sur 45 Sudeste 0 -- -- 45
2019-03-28 12:00:00 12.3 23 Sur 45 Este 0 -- -- 49
2019-03-28 11:00:00 11.8 16 Sur 41 Sudeste 0 -- -- 50
2019-03-28 10:00:00 10.6 18 Sur 42 Sur 0 -- -- 54
2019-03-28 09:00:00 9.6 14 Sur 30 Sudeste 0 -- -- 55
2019-03-28 08:00:00 7.5 10 Sur 26 Sur 0 -- -- 61
2019-03-28 07:00:00 7.1 9 Sur 28 Sudeste 0 -- -- 63
2019-03-28 06:00:00 7.1 8 Sur 32 Sur 0 -- -- 65
2019-03-28 05:00:00 7.2 14 Sur 31 Sur 0 -- -- 63
2019-03-28 04:00:00 7.8 10 Sur 28 Sudeste 0 -- -- 48
2019-03-28 03:00:00 7.9 11 Sur 31 Sur 0 -- -- 59
2019-03-28 02:00:00 8.5 15 Sur 34 Sur 0 -- -- 65
2019-03-28 01:00:00 9.1 16 Sur 36 Sur 0 -- -- 64
2019-03-28 00:00:00 9.1 8 Sudeste 31 Sudeste 0 -- -- 70
2019-03-27 23:00:00 9.1 13 Sudeste 36 Sudeste 0 -- -- 70
2019-03-27 22:00:00 9 11 Sur 33 Este 0 -- -- 69
2019-03-27 21:00:00 8.6 14 Sur 36 Sudeste 0 -- -- 65
2019-03-27 20:00:00 9.3 13 Sudeste 31 Sur 0 -- -- 56
2019-03-27 19:00:00 11 10 Sur 30 Sudeste 0 -- -- 44
2019-03-27 18:00:00 12.7 13 Sur 32 Sur 0 -- -- 36
2019-03-27 17:00:00 14.1 16 Sur 33 Sur 0 -- -- 37
2019-03-27 16:00:00 15.1 12 Sur 33 Sur 0 -- -- 34
2019-03-27 15:00:00 14.4 14 Sur 32 Sur 0 -- -- 34
2019-03-27 14:00:00 14.6 11 Sudeste 31 Sur 0 -- -- 29
2019-03-27 13:00:00 13.9 12 Sudeste 36 Sur 0 -- -- 33
2019-03-27 12:00:00 13.2 14 Sur 36 Sur 0 -- -- 34
2019-03-27 11:00:00 11.9 15 Sur 34 Sur 0 -- -- 46
2019-03-27 10:00:00 10.4 12 Sur 32 Sudeste 0 -- -- 54
2019-03-27 09:00:00 8.8 14 Sur 37 Sudeste 0 -- -- 60
2019-03-27 08:00:00 8 19 Sudeste 43 Sudeste 0 -- -- 62
2019-03-27 07:00:00 7.9 22 Sur 40 Sur 0 -- -- 60
2019-03-27 06:00:00 8.3 19 Sur 52 Sudeste 0 -- -- 56
2019-03-27 05:00:00 8.2 18 Sur 38 Este 0 -- -- 58
2019-03-27 04:00:00 8.4 15 Sur 33 Sur 0 -- -- 63
2019-03-27 03:00:00 8.8 12 Sur 32 Sur 0 -- -- 64
2019-03-27 02:00:00 9 7 Sur 22 Este 0 -- -- 61
2019-03-27 01:00:00 9.3 10 Sudeste 32 Sudeste 0 -- -- 65
2019-03-27 00:00:00 9.6 12 Sur 30 Sur 0 -- -- 70
2019-03-26 23:00:00 10.6 16 Sur 36 Sur 0 -- -- 79
2019-03-26 22:00:00 11.2 19 Sur 36 Sur 0 -- -- 75
2019-03-26 21:00:00 11.4 17 Sur 43 Sur 0 -- -- 73
2019-03-26 20:00:00 13.2 17 Sur 41 Sur 0 -- -- 52
2019-03-26 19:00:00 13.8 11 Sur 33 Sur 0 -- -- 44
2019-03-26 18:00:00 14.8 14 Sur 45 Sudeste 0 -- -- 43
2019-03-26 17:00:00 15.6 15 Sur 44 Sur 0 -- -- 47
2019-03-26 16:00:00 15.8 24 Sudeste 44 Sudeste 0 -- -- 43
2019-03-26 15:00:00 15.4 24 Sur 52 Sur 0 -- -- 44
2019-03-26 14:00:00 16 22 Sudeste 50 Sur 0 -- -- 45
2019-03-26 13:00:00 17.2 25 Sur 46 Sur 0 -- -- 46
2019-03-26 12:00:00 16.8 22 Sudeste 43 Sur 0 -- -- 48
2019-03-26 11:00:00 16.4 22 Sur 48 Sudeste 0 -- -- 48
2019-03-26 10:00:00 15.5 22 Sur 46 Sudeste 0 -- -- 49
2019-03-26 09:00:00 13.9 19 Sur 37 Sudeste 0 -- -- 52
2019-03-26 08:00:00 13 21 Sur 36 Sur 0 -- -- 53
2019-03-26 07:00:00 13.5 19 Sur 37 Sur 0 -- -- 48
2019-03-26 06:00:00 13.6 16 Sur 32 Sur 0 -- -- 42
2019-03-26 05:00:00 13.2 15 Sur 31 Sudoeste 0 -- -- 42
2019-03-26 04:00:00 13.2 17 Sur 38 Sur 0 -- -- 48
2019-03-26 03:00:00 13.1 16 Sur 33 Sur 0 -- -- 51
2019-03-26 02:00:00 13.5 14 Sur 34 Sur 0 -- -- 51
2019-03-26 01:00:00 12.9 9 Sur 40 Sudeste 0 -- -- 55
2019-03-26 00:00:00 13.1 17 Sudeste 33 Sur 0 -- -- 56
2019-03-25 23:00:00 13 12 Sur 33 Este 0 -- -- 56
2019-03-25 22:00:00 13.1 11 Sudeste 26 Sur 0 -- -- 55
2019-03-25 21:00:00 13.1 6 Sudeste 17 Sudeste 0 -- -- 56
2019-03-25 20:00:00 13.7 3 Sudeste 16 Sudeste 0 -- -- 55
2019-03-25 19:00:00 15.3 6 Sur 24 Sur 0 -- -- 52
2019-03-25 18:00:00 17.3 10 Sur 22 Sur 0 -- -- 48
2019-03-25 17:00:00 17.9 12 Sur 32 Sur 0 -- -- 45
2019-03-25 16:00:00 18.2 16 Sur 33 Sur 0 -- -- 45
2019-03-25 15:00:00 18.6 15 Sur 35 Sur 0 -- -- 45
2019-03-25 14:00:00 17.8 17 Sur 33 Sudeste 0 -- -- 48
2019-03-25 13:00:00 17.9 14 Sur 37 Sur 0 -- -- 49
2019-03-25 12:00:00 16.6 17 Sur 35 Sur 0 -- -- 51
2019-03-25 11:00:00 15.8 14 Sur 33 Sur 0 -- -- 53
2019-03-25 10:00:00 14.6 4 Noroeste 10 Noroeste 0 -- -- 56
2019-03-25 09:00:00 12.7 5 Este 18 Este 0 -- -- 61
2019-03-25 08:00:00 10.5 6 Este 15 Este 0 -- -- 67
2019-03-25 07:00:00 9.8 0 Calma 6 Nordeste 0 -- -- 72
2019-03-25 06:00:00 10 0 Calma 9 Sudeste 0 -- -- 72
2019-03-25 05:00:00 10.1 0 Calma 10 Oeste 0 -- -- 69
2019-03-25 04:00:00 9.9 4 Noroeste 8 Noroeste 0 -- -- 68
2019-03-25 03:00:00 10.3 3 Sur 10 Sudeste 0 -- -- 66
2019-03-25 02:00:00 10.5 3 Sur 10 Este 0 -- -- 64
2019-03-25 01:00:00 10.9 2 Sudeste 12 Sudoeste 0 -- -- 62
2019-03-25 00:00:00 11.2 3 Sudeste 14 Sudeste 0 -- -- 60
2019-03-24 23:00:00 11.6 6 Sudeste 15 Sur 0 -- -- 61
2019-03-24 22:00:00 11.5 3 Sudeste 26 Este 0 -- -- 59
2019-03-24 21:00:00 12.1 8 Sudeste 29 Este 0 -- -- 56
2019-03-24 20:00:00 12 9 Sudeste 36 Este 0 -- -- 59
2019-03-24 19:00:00 12.1 11 Sudeste 35 Este 0 -- -- 63
2019-03-24 18:00:00 13.2 18 Este 36 Este 0 -- -- 61
2019-03-24 17:00:00 14.4 9 Sudeste 37 Este 0 -- -- 55
2019-03-24 16:00:00 16.4 10 Sudeste 37 Sudeste 0 -- -- 50
2019-03-24 15:00:00 15.7 17 Sur 35 Sur 0 -- -- 54
2019-03-24 14:00:00 15.7 17 Sur 37 Sudeste 0 -- -- 52
2019-03-24 13:00:00 14.8 18 Sudeste 43 Sudeste 0 -- -- 56
2019-03-24 12:00:00 14.6 19 Sur 37 Sur 0 -- -- 59
2019-03-24 11:00:00 13.6 15 Sur 35 Sudeste 0 -- -- 64
2019-03-24 10:00:00 13 15 Sur 35 Sudeste 0 -- -- 63
2019-03-24 09:00:00 11.5 15 Sur 32 Sudeste 0 -- -- 67
2019-03-24 08:00:00 9.8 9 Sur 29 Sur 0 -- -- 75
2019-03-24 07:00:00 9.7 10 Sur 30 Sur 0 -- -- 76
2019-03-24 06:00:00 9.6 14 Sur 30 Sur 0 -- -- 75
2019-03-24 05:00:00 9.6 13 Sur 34 Sudeste 0 -- -- 77
2019-03-24 04:00:00 9.6 15 Sur 37 Este 0 -- -- 74
2019-03-24 03:00:00 9.6 13 Sur 28 Sudeste 0 -- -- 73
2019-03-24 02:00:00 9.8 16 Sudeste 34 Sudeste 0 -- -- 73
2019-03-24 01:00:00 10 15 Sudeste 40 Sudeste 0 -- -- 71
2019-03-24 00:00:00 10.1 19 Sur 36 Sur 0 -- -- 68
2019-03-23 23:00:00 10.3 15 Sur 37 Sudeste 0 -- -- 66
2019-03-23 22:00:00 10 11 Sudeste 27 Sudeste 0 -- -- 67
2019-03-23 21:00:00 9.9 5 Sur 21 Sudeste 0 -- -- 65
2019-03-23 20:00:00 10.4 5 Sudeste 27 Este 0 -- -- 62
2019-03-23 19:00:00 11.9 9 Sudeste 28 Sudeste 0 -- -- 54
2019-03-23 18:00:00 13.6 8 Sudeste 35 Sudeste 0 -- -- 53
2019-03-23 17:00:00 14.7 12 Sudeste 38 Este 0 -- -- 51
2019-03-23 16:00:00 14.1 7 Sur 39 Este 0 -- -- 50
2019-03-23 15:00:00 14.7 11 Sudeste 39 Este 0 -- -- 50
2019-03-23 14:00:00 13.9 15 Sur 38 Sudeste 0 -- -- 54
2019-03-23 13:00:00 14.1 13 Sur 38 Este 0 -- -- 58
2019-03-23 12:00:00 13.1 16 Sur 43 Sur 0 -- -- 59
2019-03-23 11:00:00 12.2 15 Sudeste 35 Sudeste 0 -- -- 61
2019-03-23 10:00:00 11.1 14 Sur 31 Sur 0 -- -- 66
2019-03-23 09:00:00 11.3 7 Sur 22 Sur 0 -- -- 64
2019-03-23 08:00:00 9.3 4 Sudeste 17 Sudeste 0 -- -- 67
2019-03-23 07:00:00 8.7 0 Calma 9 Este 0 -- -- 67
2019-03-23 06:00:00 9.1 3 Nordeste 17 Este 0 -- -- 68
2019-03-23 05:00:00 9.5 9 Sudeste 27 Sudeste 0 -- -- 69
2019-03-23 04:00:00 9.5 11 Sudeste 30 Sudeste 0 -- -- 69
2019-03-23 03:00:00 9.3 9 Sur 21 Sur 0 -- -- 70
2019-03-23 02:00:00 9.2 9 Sudeste 27 Este 0 -- -- 68
2019-03-23 01:00:00 9.2 6 Sudeste 20 Este 0 -- -- 65
2019-03-23 00:00:00 8.8 4 Sudeste 14 Sudeste 0 -- -- 62
2019-03-22 23:00:00 8.9 0 Calma 12 Este 0 -- -- 64
2019-03-22 22:00:00 8.6 0 Calma 10 Nordeste 0 -- -- 65
2019-03-22 21:00:00 9.4 3 Norte 13 Este 0 -- -- 62
2019-03-22 20:00:00 10.2 5 Nordeste 22 Sur 0 -- -- 53
2019-03-22 19:00:00 11.8 8 Sur 21 Sudeste 0 -- -- 49
2019-03-22 18:00:00 13.6 6 Sur 21 Sudeste 0 -- -- 47
2019-03-22 17:00:00 13.7 9 Sur 25 Sudeste 0 -- -- 49
2019-03-22 16:00:00 13.8 11 Sur 30 Sudeste 0 -- -- 49
2019-03-22 15:00:00 15 13 Sur 28 Sur 0 -- -- 46
2019-03-22 14:00:00 14.8 11 Sur 25 Sur 0 -- -- 48
2019-03-22 13:00:00 14.1 13 Sur 27 Sudeste 0 -- -- 48
2019-03-22 12:00:00 13.1 12 Sur 30 Sur 0 -- -- 50
2019-03-22 11:00:00 11.9 12 Sudeste 27 Sudeste 0 -- -- 52
2019-03-22 10:00:00 11.2 7 Norte 15 Este 0 -- -- 51
2019-03-22 09:00:00 9.5 6 Sudeste 17 Sur 0 -- -- 56
2019-03-22 08:00:00 7.3 0 Calma 10 Este 0 -- -- 70
2019-03-22 07:00:00 8 3 Nordeste 12 Noroeste 0 -- -- 74
2019-03-22 06:00:00 8.1 5 Sudeste 20 Sudeste 0 -- -- 75
2019-03-22 05:00:00 7.7 4 Sudeste 23 Este 0 -- -- 68
2019-03-22 04:00:00 7.7 0 Calma 12 Sur 0 -- -- 70
2019-03-22 03:00:00 8 0 Calma 12 Este 0 -- -- 68
2019-03-22 02:00:00 8.5 3 Sur 13 Nordeste 0 -- -- 70
2019-03-22 01:00:00 8.3 6 Este 17 Sudeste 0 -- -- 70
2019-03-22 00:00:00 8 4 Este 16 Sur 0 -- -- 72
2019-03-21 23:00:00 7.5 7 Sudeste 23 Sudeste 0 -- -- 72
2019-03-21 22:00:00 7.5 3 Sudeste 14 Sur 0 -- -- 67
2019-03-21 21:00:00 7.9 4 Sudeste 18 Este 0 -- -- 63
2019-03-21 20:00:00 8.5 5 Sudeste 15 Sur 0 -- -- 58
2019-03-21 19:00:00 10.2 5 Sur 22 Sudeste 0 -- -- 52
2019-03-21 18:00:00 12 8 Sudeste 24 Sudeste 0 -- -- 47
2019-03-21 17:00:00 12.7 7 Sudeste 24 Sudeste 0 -- -- 42
2019-03-21 16:00:00 13.3 10 Sur 30 Sur 0 -- -- 39
2019-03-21 15:00:00 13.3 7 Sudeste 30 Este 0 -- -- 37
2019-03-21 14:00:00 12.7 10 Este 28 Este 0 -- -- 43
2019-03-21 13:00:00 12.3 9 Sudeste 34 Este 0 -- -- 43
2019-03-21 12:00:00 11.2 13 Sudeste 38 Este 0 -- -- 44
2019-03-21 11:00:00 10.6 13 Sudeste 33 Este 0 -- -- 44
2019-03-21 10:00:00 10.3 8 Sudeste 23 Este 0 -- -- 43
2019-03-21 09:00:00 8.1 4 Norte 12 Nordeste 0 -- -- 62
2019-03-21 08:00:00 5.8 4 Norte 14 Este 0 -- -- 74
2019-03-21 07:00:00 6.1 3 Este 13 Nordeste 0 -- -- 72
2019-03-21 06:00:00 6.5 5 Este 19 Sudeste 0 -- -- 72
2019-03-21 05:00:00 6.5 0 Calma 13 Este 0 -- -- 75
2019-03-21 04:00:00 7 5 Este 19 Sudeste 0 -- -- 76
2019-03-21 03:00:00 7.1 5 Sudeste 20 Este 0 -- -- 77
2019-03-21 02:00:00 7.1 4 Sudeste 20 Sudeste 0 -- -- 79
2019-03-21 01:00:00 7.6 6 Sudeste 23 Este 0 -- -- 73
2019-03-21 00:00:00 7.4 3 Nordeste 20 Sur 0 -- -- 75
2019-03-20 23:00:00 7.7 3 Este 15 Este 0 -- -- 71
2019-03-20 22:00:00 8.1 5 Sur 15 Sudeste 0 -- -- 69
2019-03-20 21:00:00 8.3 6 Este 14 Este 0 -- -- 69
2019-03-20 20:00:00 8.6 4 Sur 19 Sudeste 0 -- -- 64
2019-03-20 19:00:00 9.9 6 Sur 28 Sudeste 0 -- -- 58
2019-03-20 18:00:00 12.1 11 Sur 28 Sur 0 -- -- 52
2019-03-20 17:00:00 13.1 11 Sur 29 Sur 0 -- -- 50
2019-03-20 16:00:00 12.9 7 Sudeste 30 Sur 0 -- -- 46
2019-03-20 15:00:00 13.6 13 Sur 29 Sur 0 -- -- 48
2019-03-20 14:00:00 11.7 15 Sudeste 35 Sur 0 -- -- 48
2019-03-20 13:00:00 11.9 15 Sur 33 Sudeste 0 -- -- 58
2019-03-20 12:00:00 13 11 Sur 30 Sur 0 -- -- 52
2019-03-20 11:00:00 12.2 10 Sur 27 Sur 0 -- -- 53
2019-03-20 10:00:00 11.7 8 Sur 18 Sudeste 0 -- -- 58
2019-03-20 09:00:00 9.6 8 Sudeste 18 Sudeste 0 -- -- 65
2019-03-20 08:00:00 7.2 3 Sudeste 11 Este 0 -- -- 76
2019-03-20 07:00:00 7.2 2 Sudeste 12 Este 0 -- -- 77
2019-03-20 06:00:00 7.5 4 Este 15 Este 0 -- -- 74
2019-03-20 05:00:00 7.4 3 Sur 8 Sudeste 0 -- -- 78
2019-03-20 04:00:00 7.9 2 Norte 12 Este 0 -- -- 75
2019-03-20 03:00:00 9.1 5 Sudeste 26 Este 0 -- -- 70
2019-03-20 02:00:00 9.5 10 Este 26 Este 0 -- -- 70
2019-03-20 01:00:00 9.4 6 Sudeste 20 Este 0 -- -- 72
2019-03-20 00:00:00 9.6 8 Este 21 Este 0 -- -- 67
2019-03-19 23:00:00 9.2 3 Sur 13 Nordeste 0 -- -- 56
2019-03-19 22:00:00 10.3 6 Nordeste 18 Nordeste 0 -- -- 43
2019-03-19 21:00:00 11.2 8 Nordeste 15 Norte 0 -- -- 41
2019-03-19 20:00:00 12 6 Nordeste 20 Nordeste 0 -- -- 41
2019-03-19 19:00:00 13.5 10 Nordeste 30 Nordeste 0 -- -- 37
2019-03-19 18:00:00 14.9 15 Nordeste 28 Nordeste 0 -- -- 35
2019-03-19 17:00:00 16.1 13 Norte 26 Norte 0 -- -- 33
2019-03-19 16:00:00 16.5 13 Norte 26 Norte 0 -- -- 30
2019-03-19 15:00:00 16.7 11 Norte 25 Norte 0 -- -- 28
2019-03-19 14:00:00 15.8 10 Norte 26 Nordeste 0 -- -- 36
2019-03-19 13:00:00 15 13 Nordeste 26 Este 0 -- -- 39
2019-03-19 12:00:00 14.3 13 Norte 26 Nordeste 0 -- -- 41
2019-03-19 11:00:00 13.6 5 Norte 12 Norte 0 -- -- 62
2019-03-19 10:00:00 12.4 3 Noroeste 6 Noroeste 0 -- -- 75
2019-03-19 09:00:00 9.7 0 Calma 6 Este 0 -- -- 84
2019-03-19 08:00:00 7.5 0 Calma 4 Este 0 -- -- 92
2019-03-19 07:00:00 7.2 0 Calma 2 Este 0 -- -- 92
2019-03-19 06:00:00 7.5 0 Calma 3 Sur 0 -- -- 89
2019-03-19 05:00:00 8 0 Calma 2 Sur 0 -- -- 90
2019-03-19 04:00:00 8.2 0 Calma 3 Este 0 -- -- 90
2019-03-19 03:00:00 8.6 0 Calma 3 Este 0 -- -- 88
2019-03-19 02:00:00 9.1 0 Calma 6 Sudeste 0 -- -- 85
2019-03-19 01:00:00 9.1 0 Calma 6 Sudeste 0 -- -- 87
2019-03-19 00:00:00 9.3 0 Calma 4 Sudeste 0 -- -- 86